Aérodrome :







RETROUVEZ-NOUS SUR...

 
LOGIN :

S'inscrire | Disclaimer

   EN    FR    IT 

 









Légende :    VFR   VFR Marginal   IFR   IFR Intensif   IFR Très Intensif
Visi : 
Plafond : 
>= 8 km
>= 3000ft
5 à 8 km
1000 à 3000 ft
1500m à 5 km
500 à 1000 ft
800 à 1500m
200 à 500 ft
< 800m
< 200 ft
Symboles :   Orages  Brouillard  Fortes neiges  Fortes précipitations  Vent > 20 kt







- Altitude de l'aérodrome : 92 ft
- Code IATA : YZX


CYZX - CFB Greenwood

DERNIER METAR :
  • 251400Z 07013KT 15SM FEW030 18/14 A3039 RMK CU2 SLP292

METARs EXPIRÉS :
  • 251300Z 06011KT 15SM FEW030 17/13 A3039 RMK CU1 SLP292
  • 251200Z 00000KT 15SM SKC 14/10 A3039 RMK SLP292

TAF TAF CYZX
Valide du 25 à 12h jusqu'au 26 à 12h UTC


251135Z 2512/2612 VRB03KT P6SM SKC
BECMG 2513/2515 05008KT
BECMG 2516/2518 05012KT
FM260000 VRB03KT P6SM BKN250
FM261000 VRB03KT P6SM OVC180 RMK NXT FCST BY 251800Z
Pas de NOTAMs connus pour ce terrain.



MET'MAP, la Météo Aéronautique d'un coup d'oeil ! - Copyright ORBIFLY Décembre 2007 - Disclaimer

ORBIFLY MET'MAP TEAM :

Programmation & Développement : Alexandra Zaïnal
Conception & Développement : Baudouin d'Aumeries
Co-Programmation & Développement : Marc-Olivier Méhu
Soutien technique & logistique : Manuel Goepfert

Contact : metmap@orbifly.com




SOURCES & CREDITS :

   NOAA